Rixford, PA (16745)

12:03 PM EDT on September 30, 2014 (GMT -0400)
Downtown Duke Center | Change Station
CLOSE
Current Station
Personal Weather Station
Location: Duke Center, PA
Elevation: 1604 ft
Nearby Weather Stations

Elev 1604 ft 41.95 °N, 78.48 °W | Updated 4 seconds ago

Clear
Clear
64.8 °F
Feels Like 64.8 °F
N
1.2
Wind Variable Wind from SSE
Gusts 1.2 mph

Today
High -- | Low -- °F
--% Chance of Precip.
Yesterday
High -- | Low -- °F
Precip. -- in
7:09 AM 6:57 PM
Waxing Crescent, 38% visible
Pressure 29.92 in
Visibility 10.0 miles
Clouds Scattered Clouds 3300 ft
Dew Point 60 °F
Humidity 86%
Rainfall 0.00 in
Snow Depth Not available.
UV 5 out of 12
Pollen .50 out of 12
Air Quality Not available.
Flu Activity Not available.
METAR KBFD 301553Z AUTO 29008KT 10SM SCT033 20/11 A2993 RMK AO2 SLP130 T02000111

More Conditions Fewer Conditions

Pressure 29.92 in
Visibility 10.0 miles
Clouds Scattered Clouds 3300 ft
Dew Point 60 °F
Humidity 86%
Rainfall 0.00 in
Snow Depth Not available.
UV 5 out of 12
Pollen .50 out of 12
Air Quality Not available.
Flu Activity Not available.
METAR KBFD 301553Z AUTO 29008KT 10SM SCT033 20/11 A2993 RMK AO2 SLP130 T02000111

More Conditions Fewer Conditions

10-Day Weather Forecast

Almanac

Astronomy

Sep. 30, 2014 Rise Set
Actual Time 7:09 AM EDT 6:57 PM EDT
Civil Twilight 6:42 AM EDT 7:25 PM EDT
Nautical Twilight 6:09 AM EDT 7:57 PM EDT
Astronomical Twilight 5:36 AM EDT 8:30 PM EDT
Moon 1:20 PM EDT 11:21 PM EDT
Length of Visible Light 12h 43m
Length of Day
11h 47m
Tomorrow will be 2m 47s shorter.
Waxing Crescent, 38% of the Moon is Illuminated
Today
Waxing Crescent
Oct 1
First Quarter
Oct 8
Full
Oct 15
Last Quarter
Oct 23
New

Today's Extremes

State Highs State Lows

Community

WunderPhotos

Upload Photos

1,757,675 photos uploaded!

Nearby

Snow Depth

Station Depth Elevation
No new snow has been reported.

Earthquake Activity

City Distance Mag. Time & Date
No recent earthquake activity has been reported nearby.
Minimum magnitude displayed is 2.5.

Coastal Water Temperatures

Place Temperature
No Stations Reporting

Nearby Weather Stations